sensor_id;sensor_type;location;lat;lon;timestamp;pressure;altitude;pressure_sealevel;temperature;humidity
34921;BME280;21128;50.016;20.002;2023-04-28T00:00:35;99348.59;;;4.45;69.03
34921;BME280;21128;50.016;20.002;2023-04-28T00:03:17;99355.41;;;4.47;68.85
34921;BME280;21128;50.016;20.002;2023-04-28T00:05:44;99353.64;;;4.48;69.33
34921;BME280;21128;50.016;20.002;2023-04-28T00:08:12;99364.31;;;4.43;69.66
34921;BME280;21128;50.016;20.002;2023-04-28T00:10:39;99370.88;;;4.20;70.48
34921;BME280;21128;50.016;20.002;2023-04-28T00:13:06;99378.33;;;3.97;71.91
34921;BME280;21128;50.016;20.002;2023-04-28T00:15:33;99379.09;;;3.83;73.40
34921;BME280;21128;50.016;20.002;2023-04-28T00:18:00;99378.96;;;3.70;74.01
34921;BME280;21128;50.016;20.002;2023-04-28T00:20:27;99375.02;;;3.63;74.40
34921;BME280;21128;50.016;20.002;2023-04-28T00:22:54;99369.89;;;3.61;74.71
34921;BME280;21128;50.016;20.002;2023-04-28T00:25:21;99365.62;;;3.60;75.02
34921;BME280;21128;50.016;20.002;2023-04-28T00:27:48;99362.95;;;3.62;75.08
34921;BME280;21128;50.016;20.002;2023-04-28T00:30:16;99373.27;;;3.63;75.15
34921;BME280;21128;50.016;20.002;2023-04-28T00:32:43;99370.75;;;3.62;76.36
34921;BME280;21128;50.016;20.002;2023-04-28T00:35:10;99368.21;;;3.60;75.58
34921;BME280;21128;50.016;20.002;2023-04-28T00:37:37;99368.99;;;3.62;76.72
34921;BME280;21128;50.016;20.002;2023-04-28T00:40:05;99365.47;;;3.63;76.49
34921;BME280;21128;50.016;20.002;2023-04-28T00:42:32;99365.28;;;3.66;76.16
34921;BME280;21128;50.016;20.002;2023-04-28T00:44:59;99354.70;;;3.70;76.27
34921;BME280;21128;50.016;20.002;2023-04-28T00:47:35;99346.02;;;3.71;76.53
34921;BME280;21128;50.016;20.002;2023-04-28T00:50:03;99361.61;;;3.71;76.32
34921;BME280;21128;50.016;20.002;2023-04-28T00:52:33;99348.61;;;3.71;76.96
34921;BME280;21128;50.016;20.002;2023-04-28T00:55:01;99356.22;;;3.74;77.09
34921;BME280;21128;50.016;20.002;2023-04-28T00:57:30;99357.15;;;3.73;76.16
34921;BME280;21128;50.016;20.002;2023-04-28T00:59:57;99363.27;;;3.72;75.94
34921;BME280;21128;50.016;20.002;2023-04-28T01:02:25;99360.77;;;3.70;76.47
34921;BME280;21128;50.016;20.002;2023-04-28T01:04:52;99357.30;;;3.70;76.22
34921;BME280;21128;50.016;20.002;2023-04-28T01:07:20;99357.39;;;3.68;76.83
34921;BME280;21128;50.016;20.002;2023-04-28T01:09:47;99358.32;;;3.67;76.59
34921;BME280;21128;50.016;20.002;2023-04-28T01:12:14;99354.88;;;3.66;76.52
34921;BME280;21128;50.016;20.002;2023-04-28T01:14:41;99354.80;;;3.68;76.88
34921;BME280;21128;50.016;20.002;2023-04-28T01:17:09;99353.03;;;3.68;76.67
34921;BME280;21128;50.016;20.002;2023-04-28T01:19:36;99354.70;;;3.70;76.40
34921;BME280;21128;50.016;20.002;2023-04-28T01:22:03;99352.10;;;3.70;76.96
34921;BME280;21128;50.016;20.002;2023-04-28T01:24:30;99354.64;;;3.71;76.87
34921;BME280;21128;50.016;20.002;2023-04-28T01:26:57;99357.30;;;3.70;76.49
34921;BME280;21128;50.016;20.002;2023-04-28T01:29:24;99352.29;;;3.66;76.57
34921;BME280;21128;50.016;20.002;2023-04-28T01:31:52;99355.81;;;3.65;76.25
34921;BME280;21128;50.016;20.002;2023-04-28T01:34:19;99362.50;;;3.70;75.90
34921;BME280;21128;50.016;20.002;2023-04-28T01:36:46;99364.11;;;3.72;76.41
34921;BME280;21128;50.016;20.002;2023-04-28T01:39:13;99363.92;;;3.75;76.37
34921;BME280;21128;50.016;20.002;2023-04-28T01:41:40;99362.91;;;3.78;77.09
34921;BME280;21128;50.016;20.002;2023-04-28T01:44:07;99360.06;;;3.82;76.86
34921;BME280;21128;50.016;20.002;2023-04-28T01:46:34;99367.95;;;3.81;77.13
34921;BME280;21128;50.016;20.002;2023-04-28T01:49:02;99369.88;;;3.77;75.81
34921;BME280;21128;50.016;20.002;2023-04-28T01:51:29;99365.51;;;3.78;75.46
34921;BME280;21128;50.016;20.002;2023-04-28T01:53:56;99367.27;;;3.77;76.43
34921;BME280;21128;50.016;20.002;2023-04-28T01:56:23;99365.59;;;3.76;75.47
34921;BME280;21128;50.016;20.002;2023-04-28T01:58:50;99359.56;;;3.76;75.81
34921;BME280;21128;50.016;20.002;2023-04-28T02:01:17;99368.29;;;3.75;75.85
34921;BME280;21128;50.016;20.002;2023-04-28T02:03:44;99375.25;;;3.74;76.30
34921;BME280;21128;50.016;20.002;2023-04-28T02:06:11;99368.29;;;3.75;76.36
34921;BME280;21128;50.016;20.002;2023-04-28T02:08:38;99363.74;;;3.78;75.71
34921;BME280;21128;50.016;20.002;2023-04-28T02:11:05;99362.75;;;3.81;76.21
34921;BME280;21128;50.016;20.002;2023-04-28T02:13:32;99356.62;;;3.82;76.27
34921;BME280;21128;50.016;20.002;2023-04-28T02:15:59;99364.24;;;3.85;76.70
34921;BME280;21128;50.016;20.002;2023-04-28T02:18:27;99356.34;;;3.86;76.46
34921;BME280;21128;50.016;20.002;2023-04-28T02:20:54;99366.69;;;3.88;76.68
34921;BME280;21128;50.016;20.002;2023-04-28T02:23:21;99373.56;;;3.89;76.90
34921;BME280;21128;50.016;20.002;2023-04-28T02:25:48;99363.90;;;3.91;76.84
34921;BME280;21128;50.016;20.002;2023-04-28T02:28:15;99358.61;;;3.92;76.36
34921;BME280;21128;50.016;20.002;2023-04-28T02:30:42;99365.39;;;3.95;76.07
34921;BME280;21128;50.016;20.002;2023-04-28T02:33:09;99363.47;;;3.99;76.20
34921;BME280;21128;50.016;20.002;2023-04-28T02:35:36;99372.10;;;3.99;76.40
34921;BME280;21128;50.016;20.002;2023-04-28T02:38:03;99371.45;;;3.95;76.31
34921;BME280;21128;50.016;20.002;2023-04-28T02:40:30;99368.17;;;3.92;77.13
34921;BME280;21128;50.016;20.002;2023-04-28T02:42:57;99367.52;;;3.88;76.88
34921;BME280;21128;50.016;20.002;2023-04-28T02:45:24;99368.52;;;3.86;77.03
34921;BME280;21128;50.016;20.002;2023-04-28T02:47:51;99371.20;;;3.84;76.60
34921;BME280;21128;50.016;20.002;2023-04-28T02:50:18;99361.64;;;3.85;77.35
34921;BME280;21128;50.016;20.002;2023-04-28T02:52:45;99361.55;;;3.86;77.41
34921;BME280;21128;50.016;20.002;2023-04-28T02:55:12;99359.72;;;3.88;77.69
34921;BME280;21128;50.016;20.002;2023-04-28T02:57:49;99362.14;;;3.91;78.06
34921;BME280;21128;50.016;20.002;2023-04-28T03:00:16;99359.35;;;3.94;77.66
34921;BME280;21128;50.016;20.002;2023-04-28T03:02:43;99363.66;;;3.95;77.57
34921;BME280;21128;50.016;20.002;2023-04-28T03:05:10;99366.16;;;3.97;77.84
34921;BME280;21128;50.016;20.002;2023-04-28T03:07:37;99362.88;;;3.93;77.66
34921;BME280;21128;50.016;20.002;2023-04-28T03:10:05;99356.94;;;3.91;77.95
34921;BME280;21128;50.016;20.002;2023-04-28T03:12:32;99361.39;;;3.89;77.47
34921;BME280;21128;50.016;20.002;2023-04-28T03:14:59;99358.05;;;3.87;78.12
34921;BME280;21128;50.016;20.002;2023-04-28T03:17:27;99360.71;;;3.86;77.73
34921;BME280;21128;50.016;20.002;2023-04-28T03:19:54;99361.23;;;3.77;78.21
34921;BME280;21128;50.016;20.002;2023-04-28T03:22:21;99360.09;;;3.66;77.41
34921;BME280;21128;50.016;20.002;2023-04-28T03:24:48;99369.23;;;3.58;77.81
34921;BME280;21128;50.016;20.002;2023-04-28T03:27:15;99379.89;;;3.53;78.24
34921;BME280;21128;50.016;20.002;2023-04-28T03:29:42;99371.17;;;3.54;77.80
34921;BME280;21128;50.016;20.002;2023-04-28T03:32:08;99372.34;;;3.49;77.80
34921;BME280;21128;50.016;20.002;2023-04-28T03:34:35;99370.77;;;3.46;77.44
34921;BME280;21128;50.016;20.002;2023-04-28T03:37:02;99370.77;;;3.46;77.61
34921;BME280;21128;50.016;20.002;2023-04-28T03:39:29;99369.00;;;3.47;78.75
34921;BME280;21128;50.016;20.002;2023-04-28T03:41:57;99371.59;;;3.47;78.51
34921;BME280;21128;50.016;20.002;2023-04-28T03:44:24;99372.52;;;3.46;78.31
34921;BME280;21128;50.016;20.002;2023-04-28T03:46:51;99374.28;;;3.45;78.47
34921;BME280;21128;50.016;20.002;2023-04-28T03:49:17;99372.67;;;3.43;78.33
34921;BME280;21128;50.016;20.002;2023-04-28T03:51:45;99374.52;;;3.41;77.97
34921;BME280;21128;50.016;20.002;2023-04-28T03:54:12;99375.45;;;3.39;78.42
34921;BME280;21128;50.016;20.002;2023-04-28T03:56:39;99373.86;;;3.37;78.81
34921;BME280;21128;50.016;20.002;2023-04-28T03:59:06;99373.17;;;3.33;78.70
34921;BME280;21128;50.016;20.002;2023-04-28T04:01:33;99373.17;;;3.33;78.19
34921;BME280;21128;50.016;20.002;2023-04-28T04:04:00;99378.28;;;3.35;78.99
34921;BME280;21128;50.016;20.002;2023-04-28T04:06:27;99377.20;;;3.39;78.29
34921;BME280;21128;50.016;20.002;2023-04-28T04:08:54;99378.70;;;3.43;78.83
34921;BME280;21128;50.016;20.002;2023-04-28T04:11:21;99373.36;;;3.46;79.42
34921;BME280;21128;50.016;20.002;2023-04-28T04:13:48;99370.48;;;3.51;79.62
34921;BME280;21128;50.016;20.002;2023-04-28T04:16:15;99373.69;;;3.56;79.53
34921;BME280;21128;50.016;20.002;2023-04-28T04:18:42;99374.25;;;3.61;79.25
34921;BME280;21128;50.016;20.002;2023-04-28T04:21:09;99374.84;;;3.66;79.27
34921;BME280;21128;50.016;20.002;2023-04-28T04:23:36;99373.67;;;3.72;79.60
34921;BME280;21128;50.016;20.002;2023-04-28T04:26:03;99370.14;;;3.73;78.73
34921;BME280;21128;50.016;20.002;2023-04-28T04:28:30;99374.23;;;3.77;79.26
34921;BME280;21128;50.016;20.002;2023-04-28T04:30:57;99369.72;;;3.80;79.56
34921;BME280;21128;50.016;20.002;2023-04-28T04:33:24;99364.09;;;3.88;79.48
34921;BME280;21128;50.016;20.002;2023-04-28T04:35:51;99365.97;;;4.00;80.61
34921;BME280;21128;50.016;20.002;2023-04-28T04:38:17;99370.30;;;4.15;80.71
34921;BME280;21128;50.016;20.002;2023-04-28T04:40:44;99364.11;;;4.32;78.79
34921;BME280;21128;50.016;20.002;2023-04-28T04:43:11;99361.35;;;4.49;79.03
34921;BME280;21128;50.016;20.002;2023-04-28T04:45:38;99367.13;;;4.69;77.88
34921;BME280;21128;50.016;20.002;2023-04-28T04:48:05;99366.88;;;4.88;77.01
34921;BME280;21128;50.016;20.002;2023-04-28T04:50:32;99365.75;;;5.06;76.89
34921;BME280;21128;50.016;20.002;2023-04-28T04:52:59;99357.82;;;5.22;76.35
34921;BME280;21128;50.016;20.002;2023-04-28T04:55:26;99361.11;;;5.38;75.48
34921;BME280;21128;50.016;20.002;2023-04-28T04:57:53;99353.09;;;5.55;75.16
34921;BME280;21128;50.016;20.002;2023-04-28T05:00:20;99360.56;;;5.74;75.49
34921;BME280;21128;50.016;20.002;2023-04-28T05:02:47;99360.95;;;5.95;74.54
34921;BME280;21128;50.016;20.002;2023-04-28T05:05:14;99352.86;;;6.12;73.81
34921;BME280;21128;50.016;20.002;2023-04-28T05:07:42;99360.40;;;6.30;74.09
34921;BME280;21128;50.016;20.002;2023-04-28T05:10:09;99365.25;;;6.48;73.41
34921;BME280;21128;50.016;20.002;2023-04-28T05:12:37;99353.73;;;6.64;72.65
34921;BME280;21128;50.016;20.002;2023-04-28T05:15:05;99358.25;;;6.74;71.91
34921;BME280;21128;50.016;20.002;2023-04-28T05:17:33;99369.39;;;6.89;71.13
34921;BME280;21128;50.016;20.002;2023-04-28T05:20:00;99358.53;;;6.95;70.60
34921;BME280;21128;50.016;20.002;2023-04-28T05:22:27;99353.83;;;7.00;69.90
34921;BME280;21128;50.016;20.002;2023-04-28T05:24:56;99349.02;;;7.07;69.78
34921;BME280;21128;50.016;20.002;2023-04-28T05:27:23;99354.32;;;7.18;68.95
34921;BME280;21128;50.016;20.002;2023-04-28T05:29:50;99357.11;;;7.28;68.64
34921;BME280;21128;50.016;20.002;2023-04-28T05:32:17;99355.51;;;7.38;67.97
34921;BME280;21128;50.016;20.002;2023-04-28T05:34:44;99352.03;;;7.50;67.48
34921;BME280;21128;50.016;20.002;2023-04-28T05:37:11;99353.55;;;7.66;67.20
34921;BME280;21128;50.016;20.002;2023-04-28T05:39:38;99353.87;;;7.85;67.16
34921;BME280;21128;50.016;20.002;2023-04-28T05:42:05;99352.75;;;8.00;66.41
34921;BME280;21128;50.016;20.002;2023-04-28T05:44:32;99351.71;;;8.14;66.43
34921;BME280;21128;50.016;20.002;2023-04-28T05:46:59;99351.14;;;8.22;65.47
34921;BME280;21128;50.016;20.002;2023-04-28T05:49:26;99355.56;;;8.32;65.44
34921;BME280;21128;50.016;20.002;2023-04-28T05:51:52;99348.95;;;8.39;64.79
34921;BME280;21128;50.016;20.002;2023-04-28T05:54:19;99349.33;;;8.46;64.42
34921;BME280;21128;50.016;20.002;2023-04-28T05:56:46;99354.48;;;8.59;64.38
34921;BME280;21128;50.016;20.002;2023-04-28T05:59:13;99356.03;;;8.72;64.01
34921;BME280;21128;50.016;20.002;2023-04-28T06:01:41;99349.38;;;8.80;63.38
34921;BME280;21128;50.016;20.002;2023-04-28T06:04:08;99355.81;;;8.87;63.43
34921;BME280;21128;50.016;20.002;2023-04-28T06:06:35;99354.39;;;8.94;63.14
34921;BME280;21128;50.016;20.002;2023-04-28T06:09:02;99361.79;;;9.00;61.94
34921;BME280;21128;50.016;20.002;2023-04-28T06:11:29;99357.71;;;9.07;61.90
34921;BME280;21128;50.016;20.002;2023-04-28T06:13:57;99362.97;;;9.18;61.97
34921;BME280;21128;50.016;20.002;2023-04-28T06:16:24;99355.91;;;9.30;61.81
34921;BME280;21128;50.016;20.002;2023-04-28T06:18:51;99363.66;;;9.43;61.18
34921;BME280;21128;50.016;20.002;2023-04-28T06:21:19;99367.20;;;9.53;61.09
34921;BME280;21128;50.016;20.002;2023-04-28T06:23:46;99357.16;;;9.58;60.70
34921;BME280;21128;50.016;20.002;2023-04-28T06:26:13;99358.81;;;9.70;60.88
34921;BME280;21128;50.016;20.002;2023-04-28T06:28:40;99354.83;;;9.87;60.08
34921;BME280;21128;50.016;20.002;2023-04-28T06:31:08;99358.48;;;9.96;59.67
34921;BME280;21128;50.016;20.002;2023-04-28T06:33:35;99356.77;;;10.06;60.10
34921;BME280;21128;50.016;20.002;2023-04-28T06:36:02;99359.09;;;10.20;59.69
34921;BME280;21128;50.016;20.002;2023-04-28T06:38:29;99350.48;;;10.29;59.21
34921;BME280;21128;50.016;20.002;2023-04-28T06:40:56;99354.14;;;10.38;59.36
34921;BME280;21128;50.016;20.002;2023-04-28T06:43:23;99359.19;;;10.51;58.80
34921;BME280;21128;50.016;20.002;2023-04-28T06:45:50;99358.44;;;10.60;58.35
34921;BME280;21128;50.016;20.002;2023-04-28T06:48:18;99348.94;;;10.68;58.40
34921;BME280;21128;50.016;20.002;2023-04-28T06:50:45;99360.06;;;10.82;57.31
34921;BME280;21128;50.016;20.002;2023-04-28T06:53:11;99355.81;;;10.90;57.72
34921;BME280;21128;50.016;20.002;2023-04-28T06:55:38;99346.75;;;11.04;57.10
34921;BME280;21128;50.016;20.002;2023-04-28T06:58:05;99347.30;;;11.08;56.50
34921;BME280;21128;50.016;20.002;2023-04-28T07:00:33;99337.22;;;11.13;56.17
34921;BME280;21128;50.016;20.002;2023-04-28T07:03:00;99329.64;;;11.19;56.01
34921;BME280;21128;50.016;20.002;2023-04-28T07:05:27;99330.63;;;11.28;55.56
34921;BME280;21128;50.016;20.002;2023-04-28T07:07:54;99333.67;;;11.33;55.17
34921;BME280;21128;50.016;20.002;2023-04-28T07:10:21;99340.34;;;11.37;54.68
34921;BME280;21128;50.016;20.002;2023-04-28T07:12:49;99323.30;;;11.41;54.87
34921;BME280;21128;50.016;20.002;2023-04-28T07:15:17;99332.48;;;11.56;54.75
34921;BME280;21128;50.016;20.002;2023-04-28T07:17:44;99325.98;;;11.61;54.12
34921;BME280;21128;50.016;20.002;2023-04-28T07:20:13;99325.56;;;11.65;53.26
34921;BME280;21128;50.016;20.002;2023-04-28T07:22:40;99321.27;;;11.74;52.83
34921;BME280;21128;50.016;20.002;2023-04-28T07:25:07;99320.05;;;11.78;51.55
34921;BME280;21128;50.016;20.002;2023-04-28T07:27:35;99320.77;;;11.80;51.51
34921;BME280;21128;50.016;20.002;2023-04-28T07:30:03;99319.79;;;11.81;50.14
34921;BME280;21128;50.016;20.002;2023-04-28T07:32:32;99313.70;;;11.80;49.53
34921;BME280;21128;50.016;20.002;2023-04-28T07:34:59;99319.39;;;11.86;49.55
34921;BME280;21128;50.016;20.002;2023-04-28T07:37:26;99307.44;;;12.01;49.57
34921;BME280;21128;50.016;20.002;2023-04-28T07:39:53;99308.00;;;12.14;48.93
34921;BME280;21128;50.016;20.002;2023-04-28T07:42:20;99311.42;;;12.34;50.05
34921;BME280;21128;50.016;20.002;2023-04-28T07:44:47;99314.03;;;12.53;50.91
34921;BME280;21128;50.016;20.002;2023-04-28T07:47:14;99305.75;;;12.76;49.67
34921;BME280;21128;50.016;20.002;2023-04-28T07:49:41;99302.14;;;12.77;49.99
34921;BME280;21128;50.016;20.002;2023-04-28T07:52:07;99294.34;;;12.85;50.29
34921;BME280;21128;50.016;20.002;2023-04-28T07:54:35;99297.03;;;13.03;51.10
34921;BME280;21128;50.016;20.002;2023-04-28T07:57:02;99291.48;;;13.06;48.98
34921;BME280;21128;50.016;20.002;2023-04-28T07:59:34;99293.14;;;13.07;47.05
34921;BME280;21128;50.016;20.002;2023-04-28T08:02:01;99292.00;;;13.09;47.08
34921;BME280;21128;50.016;20.002;2023-04-28T08:04:28;99295.72;;;13.16;46.02
34921;BME280;21128;50.016;20.002;2023-04-28T08:06:57;99295.84;;;13.24;45.83
34921;BME280;21128;50.016;20.002;2023-04-28T08:09:25;99293.54;;;13.39;45.62
34921;BME280;21128;50.016;20.002;2023-04-28T08:11:52;99288.70;;;13.52;45.10
34921;BME280;21128;50.016;20.002;2023-04-28T08:14:19;99284.96;;;13.73;45.50
34921;BME280;21128;50.016;20.002;2023-04-28T08:16:47;99282.81;;;13.94;45.16
34921;BME280;21128;50.016;20.002;2023-04-28T08:19:14;99293.67;;;14.09;43.78
34921;BME280;21128;50.016;20.002;2023-04-28T08:21:41;99285.97;;;14.16;43.53
34921;BME280;21128;50.016;20.002;2023-04-28T08:24:08;99286.03;;;14.24;41.95
34921;BME280;21128;50.016;20.002;2023-04-28T08:26:36;99286.32;;;14.21;42.03
34921;BME280;21128;50.016;20.002;2023-04-28T08:29:04;99288.77;;;14.14;41.17
34921;BME280;21128;50.016;20.002;2023-04-28T08:31:31;99279.03;;;14.15;41.65
34921;BME280;21128;50.016;20.002;2023-04-28T08:33:58;99278.61;;;14.27;41.16
34921;BME280;21128;50.016;20.002;2023-04-28T08:36:25;99273.59;;;14.42;40.84
34921;BME280;21128;50.016;20.002;2023-04-28T08:38:58;99265.78;;;14.58;40.77
34921;BME280;21128;50.016;20.002;2023-04-28T08:41:26;99266.03;;;14.73;40.67
34921;BME280;21128;50.016;20.002;2023-04-28T08:43:57;99259.49;;;14.93;40.38
34921;BME280;21128;50.016;20.002;2023-04-28T08:46:26;99264.48;;;15.05;39.60
34921;BME280;21128;50.016;20.002;2023-04-28T08:48:59;99268.33;;;15.10;39.75
34921;BME280;21128;50.016;20.002;2023-04-28T08:51:33;99267.10;;;14.88;37.48
34921;BME280;21128;50.016;20.002;2023-04-28T08:54:02;99260.78;;;14.81;38.28
34921;BME280;21128;50.016;20.002;2023-04-28T08:56:32;99270.61;;;14.97;38.44
34921;BME280;21128;50.016;20.002;2023-04-28T08:59:04;99265.61;;;14.94;36.51
34921;BME280;21128;50.016;20.002;2023-04-28T09:01:31;99264.38;;;14.72;36.58
34921;BME280;21128;50.016;20.002;2023-04-28T09:04:01;99255.70;;;14.62;37.11
34921;BME280;21128;50.016;20.002;2023-04-28T09:06:34;99259.75;;;14.74;37.13
34921;BME280;21128;50.016;20.002;2023-04-28T09:09:24;99261.98;;;14.95;37.68
34921;BME280;21128;50.016;20.002;2023-04-28T09:11:56;99247.95;;;15.03;37.39
34921;BME280;21128;50.016;20.002;2023-04-28T09:14:37;99239.87;;;15.12;37.35
34921;BME280;21128;50.016;20.002;2023-04-28T09:17:11;99249.03;;;15.34;37.21
34921;BME280;21128;50.016;20.002;2023-04-28T09:19:39;99244.56;;;15.35;36.63
34921;BME280;21128;50.016;20.002;2023-04-28T09:22:08;99247.21;;;15.35;36.03
34921;BME280;21128;50.016;20.002;2023-04-28T09:24:39;99252.99;;;15.22;35.26
34921;BME280;21128;50.016;20.002;2023-04-28T09:27:10;99236.26;;;15.13;35.88
34921;BME280;21128;50.016;20.002;2023-04-28T09:29:38;99245.41;;;15.43;36.57
34921;BME280;21128;50.016;20.002;2023-04-28T09:32:20;99238.70;;;15.82;36.65
34921;BME280;21128;50.016;20.002;2023-04-28T09:34:52;99229.72;;;16.15;36.07
34921;BME280;21128;50.016;20.002;2023-04-28T09:37:21;99231.45;;;16.47;36.14
34921;BME280;21128;50.016;20.002;2023-04-28T09:39:52;99226.75;;;16.82;36.60
34921;BME280;21128;50.016;20.002;2023-04-28T09:45:07;99219.73;;;17.20;36.01
34921;BME280;21128;50.016;20.002;2023-04-28T09:47:39;99212.85;;;17.34;35.88
34921;BME280;21128;50.016;20.002;2023-04-28T09:50:11;99203.52;;;17.38;35.21
34921;BME280;21128;50.016;20.002;2023-04-28T09:52:41;99204.16;;;17.40;35.67
34921;BME280;21128;50.016;20.002;2023-04-28T09:55:11;99197.65;;;17.65;33.79
34921;BME280;21128;50.016;20.002;2023-04-28T09:57:38;99198.28;;;17.76;35.60
34921;BME280;21128;50.016;20.002;2023-04-28T10:00:07;99192.56;;;18.02;34.83
34921;BME280;21128;50.016;20.002;2023-04-28T10:02:36;99189.18;;;18.22;34.78
34921;BME280;21128;50.016;20.002;2023-04-28T10:05:04;99184.98;;;18.43;34.94
34921;BME280;21128;50.016;20.002;2023-04-28T10:07:35;99188.66;;;18.71;34.55
34921;BME280;21128;50.016;20.002;2023-04-28T10:10:03;99180.73;;;18.93;34.04
34921;BME280;21128;50.016;20.002;2023-04-28T10:12:31;99175.92;;;19.24;34.40
34921;BME280;21128;50.016;20.002;2023-04-28T10:14:58;99177.79;;;19.45;33.41
34921;BME280;21128;50.016;20.002;2023-04-28T10:17:26;99176.94;;;19.59;33.61
34921;BME280;21128;50.016;20.002;2023-04-28T10:19:55;99174.13;;;19.67;33.28
34921;BME280;21128;50.016;20.002;2023-04-28T10:27:40;99168.80;;;19.95;31.93
34921;BME280;21128;50.016;20.002;2023-04-28T10:30:15;99166.98;;;19.75;31.33
34921;BME280;21128;50.016;20.002;2023-04-28T10:32:44;99161.57;;;19.89;31.54
34921;BME280;21128;50.016;20.002;2023-04-28T10:38:02;99162.55;;;20.10;31.58
34921;BME280;21128;50.016;20.002;2023-04-28T10:40:43;99154.25;;;19.98;30.89
34921;BME280;21128;50.016;20.002;2023-04-28T10:43:12;99154.80;;;19.87;31.21
34921;BME280;21128;50.016;20.002;2023-04-28T10:48:15;99148.25;;;20.24;30.85
34921;BME280;21128;50.016;20.002;2023-04-28T10:56:25;99133.06;;;19.90;29.34
34921;BME280;21128;50.016;20.002;2023-04-28T11:04:06;99126.83;;;19.33;29.72
34921;BME280;21128;50.016;20.002;2023-04-28T11:06:39;99113.41;;;19.20;29.93
34921;BME280;21128;50.016;20.002;2023-04-28T11:17:01;99113.34;;;20.54;30.38
34921;BME280;21128;50.016;20.002;2023-04-28T11:22:02;99107.30;;;20.99;30.16
34921;BME280;21128;50.016;20.002;2023-04-28T11:24:30;99098.48;;;21.05;29.78
34921;BME280;21128;50.016;20.002;2023-04-28T11:26:58;99097.66;;;21.18;28.65
34921;BME280;21128;50.016;20.002;2023-04-28T11:29:36;99094.37;;;21.16;28.39
34921;BME280;21128;50.016;20.002;2023-04-28T11:32:04;99094.11;;;20.78;27.64
34921;BME280;21128;50.016;20.002;2023-04-28T11:34:32;99094.23;;;20.57;28.47
34921;BME280;21128;50.016;20.002;2023-04-28T11:37:00;99097.17;;;20.68;27.92
34921;BME280;21128;50.016;20.002;2023-04-28T11:39:29;99095.52;;;20.74;27.71
34921;BME280;21128;50.016;20.002;2023-04-28T11:42:01;99097.19;;;20.34;27.31
34921;BME280;21128;50.016;20.002;2023-04-28T11:44:29;99092.25;;;20.31;27.67
34921;BME280;21128;50.016;20.002;2023-04-28T11:46:59;99078.59;;;20.06;28.17
34921;BME280;21128;50.016;20.002;2023-04-28T11:49:40;99076.74;;;20.06;28.26
34921;BME280;21128;50.016;20.002;2023-04-28T11:52:09;99074.85;;;20.00;27.56
34921;BME280;21128;50.016;20.002;2023-04-28T11:54:36;99070.39;;;19.73;27.63
34921;BME280;21128;50.016;20.002;2023-04-28T11:57:04;99071.98;;;19.67;28.23
34921;BME280;21128;50.016;20.002;2023-04-28T11:59:35;99068.03;;;19.91;28.76
34921;BME280;21128;50.016;20.002;2023-04-28T12:02:06;99056.39;;;19.99;28.29
34921;BME280;21128;50.016;20.002;2023-04-28T12:04:36;99061.88;;;20.32;28.39
34921;BME280;21128;50.016;20.002;2023-04-28T12:07:08;99054.25;;;20.83;28.50
34921;BME280;21128;50.016;20.002;2023-04-28T12:09:38;99051.02;;;21.14;28.73
34921;BME280;21128;50.016;20.002;2023-04-28T12:12:08;99047.14;;;21.30;26.95
34921;BME280;21128;50.016;20.002;2023-04-28T12:14:58;99048.52;;;20.99;26.67
34921;BME280;21128;50.016;20.002;2023-04-28T12:17:29;99037.20;;;20.84;26.68
34921;BME280;21128;50.016;20.002;2023-04-28T12:19:58;99029.21;;;20.23;26.62
34921;BME280;21128;50.016;20.002;2023-04-28T12:22:27;99027.91;;;20.06;27.21
34921;BME280;21128;50.016;20.002;2023-04-28T12:25:08;99020.64;;;19.86;27.51
34921;BME280;21128;50.016;20.002;2023-04-28T12:27:36;99018.13;;;19.78;28.36
34921;BME280;21128;50.016;20.002;2023-04-28T12:32:46;99002.42;;;19.96;28.08
34921;BME280;21128;50.016;20.002;2023-04-28T12:35:14;99006.50;;;19.92;28.62
34921;BME280;21128;50.016;20.002;2023-04-28T12:37:42;99001.47;;;20.11;28.34
34921;BME280;21128;50.016;20.002;2023-04-28T12:40:09;99009.30;;;20.19;28.46
34921;BME280;21128;50.016;20.002;2023-04-28T12:42:37;99004.09;;;20.52;28.75
34921;BME280;21128;50.016;20.002;2023-04-28T12:45:05;98998.38;;;20.68;28.43
34921;BME280;21128;50.016;20.002;2023-04-28T12:47:32;98990.16;;;21.09;28.86
34921;BME280;21128;50.016;20.002;2023-04-28T12:50:00;98989.55;;;21.47;28.45
34921;BME280;21128;50.016;20.002;2023-04-28T12:52:27;98985.38;;;21.78;28.00
34921;BME280;21128;50.016;20.002;2023-04-28T12:54:54;98978.28;;;22.03;28.37
34921;BME280;21128;50.016;20.002;2023-04-28T12:57:21;98976.36;;;22.24;27.65
34921;BME280;21128;50.016;20.002;2023-04-28T12:59:48;98975.04;;;22.39;27.20
34921;BME280;21128;50.016;20.002;2023-04-28T13:02:16;98979.73;;;22.44;27.25
34921;BME280;21128;50.016;20.002;2023-04-28T13:04:43;98977.05;;;22.44;26.35
34921;BME280;21128;50.016;20.002;2023-04-28T13:07:15;98969.47;;;22.41;26.24
34921;BME280;21128;50.016;20.002;2023-04-28T13:09:42;98963.07;;;22.42;25.41
34921;BME280;21128;50.016;20.002;2023-04-28T13:12:10;98967.29;;;22.25;26.60
34921;BME280;21128;50.016;20.002;2023-04-28T13:14:37;98962.47;;;22.40;26.64
34921;BME280;21128;50.016;20.002;2023-04-28T13:17:04;98961.62;;;22.46;26.32
34921;BME280;21128;50.016;20.002;2023-04-28T13:19:31;98956.30;;;22.39;26.18
34921;BME280;21128;50.016;20.002;2023-04-28T13:22:00;98959.20;;;22.38;26.08
34921;BME280;21128;50.016;20.002;2023-04-28T13:24:30;98960.18;;;21.99;25.84
34921;BME280;21128;50.016;20.002;2023-04-28T13:26:59;98952.84;;;21.81;26.76
34921;BME280;21128;50.016;20.002;2023-04-28T13:29:26;98946.66;;;21.87;27.36
34921;BME280;21128;50.016;20.002;2023-04-28T13:31:53;98939.38;;;22.07;27.20
34921;BME280;21128;50.016;20.002;2023-04-28T13:34:20;98939.08;;;22.29;26.65
34921;BME280;21128;50.016;20.002;2023-04-28T13:36:47;98936.48;;;22.47;26.80